Kenyon, Rhode Island
Current Conditions -  °F | °C
As of 3:00 PM on Monday 24 Nov 2014 (Local Time) from KWST Reporting Station
Haze Haze  
Wind Chill: 60°   Ceiling: 400
Heat Index: 60°   Visibility: 3mi
Dew Point: 59°   Wind: 20mph
Humidity: 96%   Direction: 200°SSW
Pressure: 29.66"   Gusts: 24mph
Location:  41.45°N, 71.63°W
Report Text: KWST 242000Z AUTO 20017G21KT 3SM BR OVC004 16/15 A2966 RMK AO2 T01560150
Loading
Personal Weather Stations






























Interactive Weather Map New forecast layout! Learn more

10-Day Weather Forecast

Advertisements
Track Severe Weather on mobile